createdAt,value
2023-02-21T00:02:01.966Z,27.92
2023-02-21T00:04:20.181Z,26.02
2023-02-21T00:06:37.652Z,21.08
2023-02-21T00:08:55.487Z,28.40
2023-02-21T00:11:13.279Z,26.75
2023-02-21T00:13:31.346Z,24.95
2023-02-21T00:15:48.812Z,26.05
2023-02-21T00:18:08.952Z,29.55
2023-02-21T00:20:27.455Z,34.55
2023-02-21T00:22:45.857Z,30.50
2023-02-21T00:25:03.448Z,34.20
2023-02-21T00:27:22.035Z,27.77
2023-02-21T00:29:40.403Z,31.80
2023-02-21T00:31:58.172Z,31.23
2023-02-21T00:34:18.528Z,28.17
2023-02-21T00:36:36.328Z,32.08
2023-02-21T00:38:54.778Z,31.02
2023-02-21T00:41:13.334Z,29.65
2023-02-21T00:43:31.368Z,29.83
2023-02-21T00:45:49.075Z,30.77
2023-02-21T00:48:07.156Z,27.90
2023-02-21T00:50:28.936Z,32.47
2023-02-21T00:52:46.944Z,27.95
2023-02-21T00:55:04.643Z,28.63
2023-02-21T00:57:22.565Z,29.33
2023-02-21T00:59:40.598Z,30.23
2023-02-21T01:01:58.653Z,34.95
2023-02-21T01:04:16.106Z,28.17
2023-02-21T01:06:36.404Z,31.75
2023-02-21T01:08:57.973Z,29.30
2023-02-21T01:11:16.037Z,28.15
2023-02-21T01:13:36.837Z,30.17
2023-02-21T01:18:11.953Z,28.63
2023-02-21T01:20:29.542Z,30.00
2023-02-21T01:22:50.906Z,32.75
2023-02-21T01:25:08.327Z,34.92
2023-02-21T01:27:26.579Z,32.70
2023-02-21T01:29:44.049Z,37.05
2023-02-21T01:32:05.893Z,33.22
2023-02-21T01:34:23.390Z,32.85
2023-02-21T01:36:42.269Z,33.47
2023-02-21T01:39:05.652Z,34.95
2023-02-21T01:41:23.270Z,31.80
2023-02-21T01:43:43.480Z,34.15
2023-02-21T01:46:06.521Z,33.92
2023-02-21T01:48:28.832Z,33.78
2023-02-21T01:50:48.215Z,33.88
2023-02-21T01:53:06.490Z,39.95
2023-02-21T01:55:27.874Z,43.03
2023-02-21T01:57:46.752Z,42.58
2023-02-21T02:00:05.864Z,38.00
2023-02-21T02:02:36.898Z,44.35
2023-02-21T02:04:57.648Z,40.97
2023-02-21T02:07:15.915Z,46.17
2023-02-21T02:09:35.494Z,40.55
2023-02-21T02:12:23.878Z,46.17
2023-02-21T02:15:04.859Z,45.83
2023-02-21T02:17:21.907Z,47.60
2023-02-21T02:20:27.292Z,40.70
2023-02-21T02:25:09.662Z,45.97
2023-02-21T02:27:48.013Z,45.65
2023-02-21T02:30:27.543Z,46.47
2023-02-21T02:33:00.825Z,45.05
2023-02-21T02:35:12.768Z,49.83
2023-02-21T02:37:32.818Z,47.13
2023-02-21T02:39:49.020Z,46.55
2023-02-21T02:42:08.487Z,46.17
2023-02-21T02:44:23.997Z,46.83
2023-02-21T02:46:32.933Z,45.50
2023-02-21T02:48:40.676Z,52.30
2023-02-21T02:50:52.231Z,43.83
2023-02-21T02:53:04.426Z,46.88
2023-02-21T02:57:41.194Z,47.40
2023-02-21T02:59:49.396Z,47.33
2023-02-21T03:02:22.509Z,45.17
2023-02-21T03:05:01.643Z,46.10
2023-02-21T03:07:24.531Z,44.97
2023-02-21T03:09:40.510Z,46.72
2023-02-21T03:12:01.560Z,48.05
2023-02-21T03:14:16.169Z,48.88
2023-02-21T03:16:28.663Z,50.10
2023-02-21T03:18:39.506Z,53.42
2023-02-21T03:20:46.714Z,44.38
2023-02-21T03:22:57.383Z,44.00
2023-02-21T03:25:06.340Z,46.25
2023-02-21T03:27:15.543Z,44.45
2023-02-21T03:29:40.617Z,47.75
2023-02-21T03:31:54.867Z,45.95
2023-02-21T03:33:59.950Z,44.42
2023-02-21T03:36:09.839Z,46.72
2023-02-21T03:38:18.244Z,42.90
2023-02-21T03:40:26.905Z,48.40
2023-02-21T03:42:32.129Z,47.45
2023-02-21T03:44:37.744Z,42.72
2023-02-21T03:46:43.450Z,45.45
2023-02-21T03:48:49.419Z,44.88
2023-02-21T03:50:59.072Z,45.85
2023-02-21T03:53:09.719Z,51.85
2023-02-21T03:55:20.087Z,43.63
2023-02-21T03:57:25.057Z,48.00
2023-02-21T03:59:30.676Z,47.35
2023-02-21T04:01:36.105Z,47.08
2023-02-21T04:03:41.710Z,46.00
2023-02-21T04:05:46.740Z,48.67
2023-02-21T04:07:52.687Z,45.83
2023-02-21T04:09:58.162Z,45.42
2023-02-21T04:12:16.538Z,47.85
2023-02-21T04:14:24.490Z,45.20
2023-02-21T04:16:30.641Z,43.55
2023-02-21T04:18:38.230Z,44.50
2023-02-21T04:20:46.415Z,51.97
2023-02-21T04:23:03.264Z,44.40
2023-02-21T04:25:11.713Z,51.22
2023-02-21T04:27:27.875Z,48.83
2023-02-21T04:29:34.729Z,41.85
2023-02-21T04:31:39.703Z,45.67
2023-02-21T04:36:01.434Z,46.35
2023-02-21T04:38:13.940Z,56.38
2023-02-21T04:40:19.355Z,47.08
2023-02-21T04:42:26.868Z,42.00
2023-02-21T04:44:32.709Z,47.97
2023-02-21T04:46:38.172Z,43.17
2023-02-21T04:48:43.033Z,62.75
2023-02-21T04:50:49.041Z,55.63
2023-02-21T04:52:54.652Z,48.42
2023-02-21T04:54:59.503Z,49.58
2023-02-21T04:57:06.011Z,51.25
2023-02-21T04:59:14.378Z,51.03
2023-02-21T05:01:21.502Z,50.78
2023-02-21T05:03:27.251Z,54.45
2023-02-21T05:05:32.248Z,55.78
2023-02-21T05:07:37.300Z,51.00
2023-02-21T05:11:50.241Z,50.00
2023-02-21T05:13:55.860Z,51.75
2023-02-21T05:16:03.297Z,55.85
2023-02-21T05:18:08.897Z,56.90
2023-02-21T05:20:14.484Z,57.40
2023-02-21T05:22:20.814Z,62.05
2023-02-21T05:24:26.491Z,61.25
2023-02-21T05:26:37.363Z,66.63
2023-02-21T05:28:43.785Z,58.75
2023-02-21T05:30:49.271Z,58.55
2023-02-21T05:32:56.772Z,58.38
2023-02-21T05:35:05.610Z,52.45
2023-02-21T05:37:11.064Z,61.97
2023-02-21T05:39:16.369Z,58.60
2023-02-21T05:41:21.623Z,53.72
2023-02-21T05:43:29.004Z,58.97
2023-02-21T05:45:34.622Z,57.58
2023-02-21T05:47:39.858Z,62.40
2023-02-21T05:49:50.798Z,58.00
2023-02-21T05:51:55.653Z,56.50
2023-02-21T05:54:01.254Z,55.05
2023-02-21T05:56:08.910Z,69.38
2023-02-21T05:58:15.096Z,65.32
2023-02-21T06:00:28.170Z,68.00
2023-02-21T06:02:33.075Z,62.05
2023-02-21T06:04:38.551Z,56.00
2023-02-21T06:06:47.624Z,64.35
2023-02-21T06:08:53.019Z,55.95
2023-02-21T06:10:58.604Z,52.35
2023-02-21T06:13:03.463Z,47.90
2023-02-21T06:15:10.466Z,46.60
2023-02-21T06:17:15.396Z,48.20
2023-02-21T06:19:22.152Z,52.45
2023-02-21T06:21:27.123Z,48.55
2023-02-21T06:23:35.657Z,46.00
2023-02-21T06:25:40.522Z,47.08
2023-02-21T06:27:46.480Z,42.90
2023-02-21T06:29:51.785Z,42.75
2023-02-21T06:32:00.367Z,44.90
2023-02-21T06:34:06.296Z,37.97
2023-02-21T06:36:15.218Z,47.15
2023-02-21T06:40:28.521Z,43.42
2023-02-21T06:42:33.576Z,43.80
2023-02-21T06:44:39.313Z,36.03
2023-02-21T06:46:47.050Z,38.47
2023-02-21T06:48:52.920Z,34.58
2023-02-21T06:50:58.592Z,34.95
2023-02-21T06:53:04.151Z,34.15
2023-02-21T06:55:11.013Z,34.80
2023-02-21T06:57:18.712Z,42.08
2023-02-21T07:01:35.140Z,33.40
2023-02-21T07:03:45.411Z,37.55
2023-02-21T07:05:50.611Z,36.72
2023-02-21T07:07:55.473Z,31.38
2023-02-21T07:10:02.638Z,34.53
2023-02-21T07:12:08.795Z,37.55
2023-02-21T07:14:17.552Z,35.42
2023-02-21T07:16:23.946Z,33.85
2023-02-21T07:18:29.372Z,39.90
2023-02-21T07:20:36.858Z,39.72
2023-02-21T07:22:42.847Z,36.83
2023-02-21T07:24:49.267Z,39.17
2023-02-21T07:26:55.246Z,36.47
2023-02-21T07:31:11.006Z,36.50
2023-02-21T07:33:19.519Z,38.33
2023-02-21T07:35:24.415Z,30.60
2023-02-21T07:37:31.955Z,38.40
2023-02-21T07:39:37.890Z,39.75
2023-02-21T07:41:43.438Z,35.95
2023-02-21T07:44:01.542Z,35.63
2023-02-21T07:46:12.814Z,35.30
2023-02-21T07:48:20.040Z,37.95
2023-02-21T07:50:28.338Z,31.73
2023-02-21T07:52:33.821Z,38.83
2023-02-21T07:54:38.945Z,39.05
2023-02-21T07:56:50.133Z,36.25
2023-02-21T07:58:55.391Z,32.17
2023-02-21T08:01:00.252Z,35.92
2023-02-21T08:03:08.481Z,34.15
2023-02-21T08:05:13.577Z,34.10
2023-02-21T08:07:20.164Z,37.10
2023-02-21T08:09:25.463Z,31.02
2023-02-21T08:11:31.207Z,32.33
2023-02-21T08:13:37.867Z,30.70
2023-02-21T08:15:42.969Z,33.45
2023-02-21T08:17:50.656Z,41.40
2023-02-21T08:20:02.292Z,31.70
2023-02-21T08:22:07.161Z,34.78
2023-02-21T08:24:16.762Z,30.95
2023-02-21T08:26:21.778Z,27.63
2023-02-21T08:28:27.451Z,35.63
2023-02-21T08:30:32.390Z,28.02
2023-02-21T08:32:38.145Z,26.90
2023-02-21T08:34:43.019Z,30.90
2023-02-21T08:36:51.574Z,28.23
2023-02-21T08:38:56.431Z,26.00
2023-02-21T08:41:04.380Z,26.20
2023-02-21T08:43:09.844Z,30.30
2023-02-21T08:45:19.739Z,31.02
2023-02-21T08:47:25.271Z,30.17
2023-02-21T08:49:30.695Z,35.58
2023-02-21T08:51:37.126Z,26.05
2023-02-21T08:53:45.799Z,28.42
2023-02-21T08:55:52.095Z,31.75
2023-02-21T08:57:58.653Z,29.00
2023-02-21T09:00:05.634Z,28.48
2023-02-21T09:02:20.061Z,27.73
2023-02-21T09:04:27.061Z,22.02
2023-02-21T09:06:32.179Z,26.48
2023-02-21T09:08:38.995Z,24.65
2023-02-21T09:10:47.723Z,27.45
2023-02-21T09:12:53.790Z,33.67
2023-02-21T09:14:58.695Z,30.10
2023-02-21T09:17:03.794Z,28.27
2023-02-21T09:19:10.046Z,26.33
2023-02-21T09:21:15.241Z,23.80
2023-02-21T09:23:21.555Z,33.08
2023-02-21T09:25:28.556Z,27.48
2023-02-21T09:27:39.086Z,24.35
2023-02-21T09:29:46.848Z,21.75
2023-02-21T09:31:52.335Z,22.98
2023-02-21T09:33:57.249Z,22.63
2023-02-21T09:36:03.078Z,24.73
2023-02-21T09:38:10.556Z,24.35
2023-02-21T09:40:27.985Z,24.08
2023-02-21T09:42:39.810Z,25.35
2023-02-21T09:44:46.051Z,25.83
2023-02-21T09:46:55.088Z,23.50
2023-02-21T09:49:00.683Z,28.08
2023-02-21T09:51:11.591Z,27.38
2023-02-21T09:53:24.189Z,24.40
2023-02-21T09:55:34.636Z,23.60
2023-02-21T09:57:43.914Z,25.13
2023-02-21T09:59:50.949Z,21.30
2023-02-21T10:02:21.230Z,23.90
2023-02-21T10:04:43.951Z,24.92
2023-02-21T10:06:55.641Z,21.13
2023-02-21T10:09:09.424Z,25.25
2023-02-21T10:11:35.280Z,26.13
2023-02-21T10:13:52.519Z,20.35
2023-02-21T10:16:06.136Z,22.80
2023-02-21T10:18:29.577Z,26.05
2023-02-21T10:20:41.906Z,23.77
2023-02-21T10:22:49.954Z,21.50
2023-02-21T10:24:57.768Z,23.50
2023-02-21T10:27:10.669Z,24.02
2023-02-21T10:29:26.961Z,20.33
2023-02-21T10:31:38.124Z,27.13
2023-02-21T10:33:44.813Z,22.48
2023-02-21T10:35:49.975Z,20.80
2023-02-21T10:37:59.514Z,21.65
2023-02-21T10:40:10.277Z,25.35
2023-02-21T10:42:24.597Z,24.38
2023-02-21T10:44:38.168Z,27.17
2023-02-21T10:46:50.605Z,23.92
2023-02-21T10:49:28.922Z,22.88
2023-02-21T10:51:37.919Z,20.45
2023-02-21T10:53:45.486Z,25.92
2023-02-21T10:56:13.109Z,21.52
2023-02-21T10:58:31.196Z,28.83
2023-02-21T11:00:48.504Z,23.33
2023-02-21T11:02:59.881Z,25.38
2023-02-21T11:05:17.390Z,22.70
2023-02-21T11:07:25.566Z,29.42
2023-02-21T11:09:40.585Z,23.98
2023-02-21T11:11:51.250Z,23.67
2023-02-21T11:14:25.190Z,30.63
2023-02-21T11:16:35.551Z,24.13
2023-02-21T11:18:41.092Z,24.25
2023-02-21T11:20:47.793Z,25.25
2023-02-21T11:22:54.061Z,24.88
2023-02-21T11:25:06.967Z,25.23
2023-02-21T11:27:13.164Z,23.58
2023-02-21T11:29:25.950Z,25.80
2023-02-21T11:31:38.093Z,30.05
2023-02-21T11:33:53.221Z,24.83
2023-02-21T11:36:14.556Z,19.92
2023-02-21T11:38:41.049Z,27.15
2023-02-21T11:40:53.062Z,23.85
2023-02-21T11:43:32.356Z,23.02
2023-02-21T11:45:41.807Z,24.15
2023-02-21T11:48:00.081Z,24.30
2023-02-21T11:50:11.457Z,23.65
2023-02-21T11:52:23.824Z,26.55
2023-02-21T11:54:32.811Z,22.80
2023-02-21T11:56:54.567Z,22.25
2023-02-21T12:04:15.970Z,22.50
2023-02-21T12:06:31.787Z,24.15
2023-02-21T12:08:54.842Z,25.67
2023-02-21T12:11:16.327Z,26.88
2023-02-21T12:13:34.257Z,24.80
2023-02-21T12:15:55.373Z,22.05
2023-02-21T12:18:39.902Z,21.90
2023-02-21T12:23:16.814Z,25.75
2023-02-21T12:25:34.014Z,22.90
2023-02-21T12:30:31.021Z,25.92
2023-02-21T12:32:56.231Z,25.60
2023-02-21T12:35:40.489Z,25.95
2023-02-21T12:38:04.387Z,25.17
2023-02-21T12:40:22.477Z,21.23
2023-02-21T12:43:05.057Z,19.48
2023-02-21T12:45:31.881Z,18.75
2023-02-21T12:49:58.620Z,20.55
2023-02-21T12:52:11.552Z,19.23
2023-02-21T12:56:44.048Z,22.48
2023-02-21T12:58:56.954Z,25.08
2023-02-21T13:01:12.193Z,24.90
2023-02-21T13:03:34.410Z,24.95
2023-02-21T13:05:46.291Z,20.45
2023-02-21T13:07:58.886Z,18.70
2023-02-21T13:10:17.998Z,28.88
2023-02-21T13:12:28.247Z,19.98
2023-02-21T13:14:42.355Z,23.63
2023-02-21T13:16:47.971Z,25.65
2023-02-21T13:18:59.546Z,20.48
2023-02-21T13:21:19.286Z,22.13
2023-02-21T13:23:37.160Z,19.55
2023-02-21T13:26:22.620Z,19.95
2023-02-21T13:28:30.952Z,18.52
2023-02-21T13:30:47.007Z,24.42
2023-02-21T13:32:58.428Z,25.85
2023-02-21T13:35:07.613Z,20.13
2023-02-21T13:37:21.206Z,21.33
2023-02-21T13:39:37.685Z,22.77
2023-02-21T13:41:49.702Z,19.08
2023-02-21T13:43:56.344Z,16.02
2023-02-21T13:47:14.267Z,19.35
2023-02-21T13:49:43.212Z,27.20
2023-02-21T13:51:53.076Z,15.43
2023-02-21T13:54:14.620Z,22.08
2023-02-21T13:56:22.168Z,18.73
2023-02-21T13:58:39.387Z,18.40
2023-02-21T14:00:57.163Z,14.70
2023-02-21T14:03:28.668Z,34.13
2023-02-21T14:06:27.671Z,17.58
2023-02-21T14:08:34.553Z,21.25
2023-02-21T14:10:46.357Z,18.08
2023-02-21T14:12:58.895Z,15.82
2023-02-21T14:15:10.412Z,13.15
2023-02-21T14:17:17.338Z,17.92
2023-02-21T14:19:28.678Z,16.65
2023-02-21T14:21:40.536Z,15.50
2023-02-21T14:23:52.512Z,22.55
2023-02-21T14:26:01.768Z,19.98
2023-02-21T14:29:03.690Z,16.13
2023-02-21T14:31:09.525Z,16.50
2023-02-21T14:33:30.554Z,13.70
2023-02-21T14:35:48.229Z,14.88
2023-02-21T14:38:01.298Z,12.98
2023-02-21T14:42:42.080Z,14.38
2023-02-21T14:45:14.232Z,14.07
2023-02-21T14:47:46.996Z,14.43
2023-02-21T14:50:34.601Z,14.43
2023-02-21T14:53:38.881Z,11.90
2023-02-21T14:56:47.308Z,12.23
2023-02-21T14:59:14.167Z,13.05
2023-02-21T15:01:41.580Z,14.15
2023-02-21T15:03:54.101Z,17.80
2023-02-21T15:06:11.368Z,17.13
2023-02-21T15:08:20.824Z,11.18
2023-02-21T15:10:28.994Z,13.43
2023-02-21T15:12:44.218Z,11.00
2023-02-21T15:14:55.030Z,9.60
2023-02-21T15:17:03.412Z,11.18
2023-02-21T15:19:12.428Z,11.88
2023-02-21T15:21:21.571Z,12.05
2023-02-21T15:23:29.646Z,12.18
2023-02-21T15:25:34.745Z,11.93
2023-02-21T15:28:02.398Z,12.10
2023-02-21T15:30:12.497Z,10.82
2023-02-21T15:32:19.072Z,9.73
2023-02-21T15:34:30.154Z,9.55
2023-02-21T15:36:37.101Z,9.23
2023-02-21T15:38:49.455Z,8.68
2023-02-21T15:40:57.986Z,6.93
2023-02-21T15:43:06.878Z,10.00
2023-02-21T15:45:19.812Z,7.32
2023-02-21T15:47:27.923Z,9.30
2023-02-21T15:49:38.735Z,6.88
2023-02-21T15:51:44.213Z,8.88
2023-02-21T15:54:25.333Z,9.25
2023-02-21T15:56:31.767Z,7.53
2023-02-21T15:58:39.629Z,6.97
2023-02-21T16:00:46.806Z,9.10
2023-02-21T16:02:51.889Z,7.15
2023-02-21T16:04:57.408Z,8.82
2023-02-21T16:07:02.927Z,13.32
2023-02-21T16:09:24.334Z,7.25
2023-02-21T16:11:42.240Z,8.48
2023-02-21T16:13:50.205Z,10.93
2023-02-21T16:15:55.112Z,7.88
2023-02-21T16:18:04.485Z,7.35
2023-02-21T16:20:20.478Z,24.88
2023-02-21T16:22:59.723Z,8.43
2023-02-21T16:25:22.815Z,10.55
2023-02-21T16:27:28.296Z,7.78
2023-02-21T16:31:43.606Z,7.90
2023-02-21T16:33:49.051Z,5.03
2023-02-21T16:35:56.576Z,4.15
2023-02-21T16:40:20.775Z,6.35
2023-02-21T16:42:26.347Z,5.07
2023-02-21T16:44:31.258Z,5.53
2023-02-21T16:46:39.196Z,5.28
2023-02-21T16:48:44.199Z,6.68
2023-02-21T16:50:50.293Z,7.38
2023-02-21T16:55:02.815Z,8.02
2023-02-21T16:57:08.121Z,11.15
2023-02-21T16:59:19.959Z,9.93
2023-02-21T17:01:33.676Z,14.10
2023-02-21T17:03:42.909Z,5.75
2023-02-21T17:05:48.264Z,8.43
2023-02-21T17:07:54.578Z,9.25
2023-02-21T17:09:59.898Z,6.80
2023-02-21T17:12:04.787Z,11.00
2023-02-21T17:14:10.822Z,7.30
2023-02-21T17:16:15.744Z,6.18
2023-02-21T17:18:21.579Z,6.65
2023-02-21T17:20:31.411Z,5.82
2023-02-21T17:22:39.907Z,7.50
2023-02-21T17:24:45.834Z,6.88
2023-02-21T17:26:56.768Z,7.45
2023-02-21T17:29:01.637Z,9.88
2023-02-21T17:31:07.523Z,21.70
2023-02-21T17:33:14.459Z,11.23
2023-02-21T17:35:20.852Z,8.30
2023-02-21T17:37:29.564Z,26.90
2023-02-21T17:39:34.906Z,8.32
2023-02-21T17:41:39.747Z,12.00
2023-02-21T17:43:45.428Z,7.07
2023-02-21T17:45:50.385Z,10.13
2023-02-21T17:50:05.037Z,7.07
2023-02-21T17:52:10.423Z,10.30
2023-02-21T17:54:18.877Z,9.80
2023-02-21T17:56:27.417Z,7.63
2023-02-21T17:58:32.867Z,9.73
2023-02-21T18:00:39.327Z,7.88
2023-02-21T18:02:45.002Z,9.82
2023-02-21T18:04:51.434Z,10.02
2023-02-21T18:06:59.704Z,9.65
2023-02-21T18:09:07.905Z,11.00
2023-02-21T18:11:18.482Z,9.57
2023-02-21T18:13:26.009Z,11.02
2023-02-21T18:15:30.907Z,9.13
2023-02-21T18:17:39.479Z,9.55
2023-02-21T18:19:44.572Z,8.55
2023-02-21T18:21:49.783Z,17.40
2023-02-21T18:23:55.040Z,11.35
2023-02-21T18:26:01.078Z,11.48
2023-02-21T18:28:10.384Z,16.55
2023-02-21T18:30:16.616Z,10.05
2023-02-21T18:32:22.333Z,10.38
2023-02-21T18:34:27.949Z,15.38
2023-02-21T18:36:35.367Z,17.77
2023-02-21T18:38:43.626Z,21.17
2023-02-21T18:40:48.815Z,12.63
2023-02-21T18:42:53.991Z,10.18
2023-02-21T18:45:01.499Z,21.50
2023-02-21T18:47:06.586Z,20.80
2023-02-21T18:49:13.895Z,15.02
2023-02-21T18:51:22.339Z,16.50
2023-02-21T18:53:27.311Z,13.75
2023-02-21T18:55:33.273Z,12.65
2023-02-21T18:57:40.298Z,13.82
2023-02-21T18:59:45.767Z,16.15
2023-02-21T19:01:56.660Z,12.75
2023-02-21T19:04:04.325Z,12.32
2023-02-21T19:06:10.826Z,16.48
2023-02-21T19:08:16.338Z,15.57
2023-02-21T19:10:25.352Z,20.63
2023-02-21T19:12:30.292Z,20.88
2023-02-21T19:14:35.192Z,17.10
2023-02-21T19:16:41.485Z,19.98
2023-02-21T19:18:51.405Z,24.25
2023-02-21T19:20:59.677Z,25.75
2023-02-21T19:23:04.556Z,14.25
2023-02-21T19:25:10.917Z,20.98
2023-02-21T19:27:17.234Z,18.52
2023-02-21T19:29:23.289Z,19.45
2023-02-21T19:31:28.240Z,38.22
2023-02-21T19:33:33.627Z,16.52
2023-02-21T19:35:41.112Z,18.42
2023-02-21T19:37:46.755Z,19.60
2023-02-21T19:39:52.415Z,21.90
2023-02-21T19:41:57.910Z,16.95
2023-02-21T19:44:02.819Z,19.83
2023-02-21T19:46:08.423Z,21.38
2023-02-21T19:48:13.839Z,20.40
2023-02-21T19:50:19.842Z,20.20
2023-02-21T19:52:28.865Z,16.00
2023-02-21T19:54:34.624Z,24.80
2023-02-21T19:56:39.483Z,23.92
2023-02-21T19:58:45.433Z,22.05
2023-02-21T20:00:51.187Z,28.20
2023-02-21T20:02:58.843Z,22.80
2023-02-21T20:05:04.105Z,20.48
2023-02-21T20:07:10.339Z,29.45
2023-02-21T20:09:18.078Z,22.38
2023-02-21T20:11:25.578Z,20.27
2023-02-21T20:13:31.134Z,28.83
2023-02-21T20:15:37.408Z,21.15
2023-02-21T20:17:43.256Z,20.33
2023-02-21T20:19:49.082Z,20.27
2023-02-21T20:21:54.892Z,30.38
2023-02-21T20:24:01.312Z,20.67
2023-02-21T20:26:14.084Z,23.92
2023-02-21T20:28:20.089Z,41.53
2023-02-21T20:30:26.055Z,20.30
2023-02-21T20:32:31.085Z,79.35
2023-02-21T20:34:36.497Z,17.98
2023-02-21T20:38:52.185Z,28.23
2023-02-21T20:40:57.032Z,27.63
2023-02-21T20:43:05.489Z,38.03
2023-02-21T20:47:21.188Z,19.90
2023-02-21T20:49:26.085Z,38.28
2023-02-21T20:51:33.114Z,19.95
2023-02-21T20:53:38.122Z,16.88
2023-02-21T20:55:43.176Z,17.30
2023-02-21T20:57:48.716Z,18.65
2023-02-21T20:59:56.889Z,22.95
2023-02-21T21:02:03.432Z,22.35
2023-02-21T21:04:08.738Z,24.35
2023-02-21T21:06:14.395Z,34.58
2023-02-21T21:08:19.995Z,23.63
2023-02-21T21:10:26.346Z,18.42
2023-02-21T21:12:31.261Z,15.82
2023-02-21T21:14:41.783Z,23.02
2023-02-21T21:16:50.614Z,23.40
2023-02-21T21:18:57.392Z,25.40
2023-02-21T21:21:02.682Z,41.92
2023-02-21T21:23:09.185Z,91.43
2023-02-21T21:25:15.864Z,17.85
2023-02-21T21:27:21.697Z,20.88
2023-02-21T21:29:27.254Z,22.65
2023-02-21T21:31:32.184Z,24.65
2023-02-21T21:33:39.635Z,20.50
2023-02-21T21:48:14.663Z,89.50
2023-02-21T21:50:24.268Z,34.22
2023-02-21T21:52:29.993Z,48.70
2023-02-21T21:54:36.311Z,26.42
2023-02-21T21:56:42.609Z,70.57
2023-02-21T21:58:47.502Z,79.40
2023-02-21T22:00:52.451Z,17.85
2023-02-21T22:02:59.298Z,20.73
2023-02-21T22:05:04.158Z,26.20
2023-02-21T22:07:13.165Z,26.75
2023-02-21T22:09:18.357Z,25.48
2023-02-21T22:11:23.545Z,35.60
2023-02-21T22:13:29.496Z,33.00
2023-02-21T22:15:34.537Z,29.30
2023-02-21T22:17:40.880Z,27.40
2023-02-21T22:19:46.066Z,28.20
2023-02-21T22:21:55.094Z,40.22
2023-02-21T22:24:03.597Z,33.97
2023-02-21T22:26:10.329Z,77.88
2023-02-21T22:28:16.382Z,75.47
2023-02-21T22:30:24.376Z,21.52
2023-02-21T22:32:29.350Z,30.58
2023-02-21T22:34:35.071Z,31.65
2023-02-21T22:36:39.933Z,33.22
2023-02-21T22:38:47.843Z,29.60
2023-02-21T22:41:00.428Z,22.05
2023-02-21T22:43:08.992Z,92.10
2023-02-21T22:45:14.490Z,24.90
2023-02-21T22:47:19.915Z,56.30
2023-02-21T22:49:25.323Z,26.60
2023-02-21T22:51:31.433Z,39.83
2023-02-21T22:53:36.542Z,31.02
2023-02-21T22:55:42.475Z,28.00
2023-02-21T22:57:51.476Z,35.85
2023-02-21T22:59:57.717Z,33.08
2023-02-21T23:02:03.509Z,30.38
2023-02-21T23:04:16.159Z,30.92
2023-02-21T23:06:21.454Z,34.25
2023-02-21T23:08:27.423Z,24.25
2023-02-21T23:10:40.287Z,26.83
2023-02-21T23:12:49.965Z,39.67
2023-02-21T23:14:56.437Z,48.33
2023-02-21T23:17:02.329Z,28.13
2023-02-21T23:19:07.674Z,27.88
2023-02-21T23:21:13.928Z,26.70
2023-02-21T23:23:19.526Z,29.73
2023-02-21T23:25:27.730Z,33.88
2023-02-21T23:27:34.016Z,27.35
2023-02-21T23:29:41.547Z,25.95
2023-02-21T23:31:47.635Z,32.35
2023-02-21T23:33:53.449Z,20.92
2023-02-21T23:36:00.537Z,28.48
2023-02-21T23:38:06.444Z,26.30
2023-02-21T23:40:21.479Z,37.25
2023-02-21T23:42:26.459Z,38.38
2023-02-21T23:44:36.143Z,21.67
2023-02-21T23:46:46.661Z,28.70
2023-02-21T23:48:53.729Z,44.85
2023-02-21T23:50:59.512Z,21.65
2023-02-21T23:53:04.506Z,25.58
2023-02-21T23:55:13.586Z,30.98
2023-02-21T23:57:18.946Z,23.08
2023-02-21T23:59:24.131Z,35.17
